Time;durP1;ratioP1;P1;durP2;ratioP2;P2;SDS_P1;SDS_P2;PMS_P1;PMS_P2;Temp;Humidity;BMP_temperature;BMP_pressure;BME280_temperature;BME280_humidity;BME280_pressure;Samples;Min_cycle;Max_cycle;Signal;HPM_P1;HPM_P2
2021/01/01 00:01:55;;;;;;;36.67;29.47;;;;;;;4.65;100.00;99191.34;5058764;28;20225;-31
2021/01/01 00:04:41;;;;;;;40.70;31.13;;;;;;;4.56;100.00;99193.94;5057889;28;20501;-30
2021/01/01 00:07:27;;;;;;;37.33;29.17;;;;;;;4.76;100.00;99193.03;5057952;28;20251;-30
2021/01/01 00:10:14;;;;;;;33.00;27.33;;;;;;;4.73;100.00;99192.19;5058380;28;20201;-30
2021/01/01 00:13:01;;;;;;;33.60;27.17;;;;;;;4.62;100.00;99189.63;5058080;28;20215;-29
2021/01/01 00:15:48;;;;;;;35.67;27.90;;;;;;;4.41;100.00;99184.56;5058002;28;20359;-30
2021/01/01 00:18:34;;;;;;;43.33;31.40;;;;;;;4.25;100.00;99183.72;5059751;28;20259;-30
2021/01/01 00:21:28;;;;;;;47.07;35.23;;;;;;;4.50;100.00;99189.69;5060939;28;20196;-29
2021/01/01 00:24:21;;;;;;;52.77;37.77;;;;;;;4.55;100.00;99190.53;5058158;28;20228;-30
2021/01/01 00:27:08;;;;;;;62.30;42.40;;;;;;;4.63;100.00;99187.94;5018761;28;20201;-30
2021/01/01 00:29:53;;;;;;;59.47;42.37;;;;;;;4.70;100.00;99192.19;5018832;28;20257;-30
2021/01/01 00:32:43;;;;;;;55.37;38.70;;;;;;;4.60;100.00;99183.66;5019337;28;20198;-30
2021/01/01 00:35:29;;;;;;;54.50;37.63;;;;;;;4.47;100.00;99175.16;5019350;28;20202;-30
2021/01/01 00:38:15;;;;;;;56.60;39.73;;;;;;;4.55;100.00;99182.84;5019013;28;20214;-30
2021/01/01 00:41:02;;;;;;;52.67;37.50;;;;;;;4.50;100.00;99177.72;5018905;28;20202;-30
2021/01/01 00:43:51;;;;;;;54.63;37.27;;;;;;;4.41;100.00;99177.72;5018324;28;20333;-30
2021/01/01 00:46:36;;;;;;;53.37;35.43;;;;;;;4.22;100.00;99181.16;5017886;28;20206;-30
2021/01/01 00:49:24;;;;;;;55.67;36.17;;;;;;;3.89;100.00;99174.38;5018316;28;20205;-30
2021/01/01 00:52:10;;;;;;;54.87;34.43;;;;;;;3.99;100.00;99180.34;5018360;28;20300;-30
2021/01/01 00:54:57;;;;;;;50.50;34.00;;;;;;;3.98;100.00;99179.50;5018057;28;20272;-30
2021/01/01 00:57:43;;;;;;;53.80;36.80;;;;;;;3.76;100.00;99186.31;5018449;28;20201;-30
2021/01/01 01:00:28;;;;;;;49.10;36.67;;;;;;;3.59;100.00;99189.69;5018167;28;20205;-30
2021/01/01 01:03:17;;;;;;;53.27;38.23;;;;;;;3.72;100.00;99191.41;5018079;28;20312;-29
2021/01/01 01:06:05;;;;;;;55.97;38.30;;;;;;;3.43;100.00;99193.91;5021762;28;20635;-30
2021/01/01 01:08:51;;;;;;;62.60;40.23;;;;;;;3.46;100.00;99197.31;5022295;28;20588;-30
2021/01/01 01:11:38;;;;;;;57.07;39.13;;;;;;;3.69;100.00;99191.41;5025895;28;20357;-30
2021/01/01 01:14:24;;;;;;;66.53;42.20;;;;;;;3.52;100.00;99203.31;5027874;28;20253;-30
2021/01/01 01:17:10;;;;;;;70.07;43.03;;;;;;;3.43;100.00;99207.53;5022861;28;20269;-29
2021/01/01 01:19:56;;;;;;;67.00;41.57;;;;;;;3.54;100.00;99211.84;5021669;28;20209;-29
2021/01/01 01:22:43;;;;;;;69.27;43.30;;;;;;;3.23;100.00;99206.63;5022193;28;20205;-30
2021/01/01 01:25:30;;;;;;;61.53;40.87;;;;;;;3.22;100.00;99211.72;5029436;28;20331;-29
2021/01/01 01:28:17;;;;;;;69.63;42.80;;;;;;;3.68;100.00;99208.44;5041834;28;20196;-30
2021/01/01 01:31:04;;;;;;;66.13;39.80;;;;;;;3.62;100.00;99220.34;5041221;28;20201;-30
2021/01/01 01:33:50;;;;;;;74.17;43.10;;;;;;;3.96;100.00;99216.16;5041787;28;20216;-30
2021/01/01 01:36:36;;;;;;;64.20;36.43;;;;;;;4.08;100.00;99213.59;5041267;28;20197;-29
2021/01/01 01:39:23;;;;;;;73.13;38.33;;;;;;;3.97;100.00;99217.88;5041567;28;20288;-30
2021/01/01 01:42:10;;;;;;;77.70;41.10;;;;;;;4.01;100.00;99217.84;5040866;28;20250;-30
2021/01/01 01:44:56;;;;;;;79.03;39.13;;;;;;;3.73;100.00;99218.69;5041070;28;20262;-30
2021/01/01 01:47:43;;;;;;;87.77;41.13;;;;;;;3.55;100.00;99224.63;5040414;28;20555;-30
2021/01/01 01:50:29;;;;;;;80.43;40.47;;;;;;;3.98;100.00;99235.78;5041317;28;20603;-29
2021/01/01 01:53:16;;;;;;;87.93;42.90;;;;;;;3.46;100.00;99235.66;5040610;28;20197;-30
2021/01/01 01:56:08;;;;;;;94.67;45.20;;;;;;;3.55;100.00;99236.56;5040952;28;20213;-30
2021/01/01 01:58:54;;;;;;;96.50;43.23;;;;;;;3.95;100.00;99229.81;5041149;28;20208;-30
2021/01/01 02:01:41;;;;;;;94.57;45.10;;;;;;;4.16;100.00;99232.38;5040788;28;20475;-30
2021/01/01 02:04:27;;;;;;;96.37;44.17;;;;;;;4.14;100.00;99236.66;5040567;28;20224;-30
2021/01/01 02:07:13;;;;;;;87.73;41.43;;;;;;;4.25;100.00;99234.91;5040765;28;20221;-30
2021/01/01 02:09:59;;;;;;;95.10;42.70;;;;;;;4.17;100.00;99241.75;5040216;28;20221;-29
2021/01/01 02:12:48;;;;;;;95.23;43.53;;;;;;;4.44;100.00;99244.28;5040368;28;20201;-30
2021/01/01 02:15:35;;;;;;;99.57;44.23;;;;;;;4.43;100.00;99244.28;5039730;28;20205;-30
2021/01/01 02:18:36;;;;;;;108.13;48.50;;;;;;;4.24;100.00;99250.28;5040589;28;20201;-30
2021/01/01 02:21:23;;;;;;;91.63;46.27;;;;;;;4.30;100.00;99245.16;5039925;28;20200;-30
2021/01/01 02:24:11;;;;;;;97.53;45.23;;;;;;;4.45;100.00;99245.16;5040040;28;20224;-30
2021/01/01 02:26:57;;;;;;;110.93;50.63;;;;;;;4.31;100.00;99249.44;5039823;28;20309;-30
2021/01/01 02:29:43;;;;;;;100.57;45.67;;;;;;;4.12;100.00;99246.03;5040162;28;20216;-30
2021/01/01 02:32:30;;;;;;;93.67;45.17;;;;;;;4.24;100.00;99246.00;5039844;28;20193;-30
2021/01/01 02:35:17;;;;;;;107.33;44.90;;;;;;;4.23;100.00;99256.25;5039613;28;20193;-30
2021/01/01 02:38:03;;;;;;;89.13;41.80;;;;;;;4.32;100.00;99258.81;5040152;28;20205;-30
2021/01/01 02:40:51;;;;;;;100.87;44.33;;;;;;;4.35;100.00;99253.72;5040601;28;20277;-29
2021/01/01 02:43:36;;;;;;;97.70;45.90;;;;;;;4.33;100.00;99261.38;5039452;28;20739;-30
2021/01/01 02:46:23;;;;;;;118.77;51.03;;;;;;;3.93;100.00;99259.66;5039647;28;20308;-30
2021/01/01 02:49:09;;;;;;;116.00;50.53;;;;;;;4.05;100.00;99255.38;5039844;28;20213;-30
2021/01/01 02:51:56;;;;;;;104.43;47.73;;;;;;;4.19;100.00;99260.53;5039828;28;20252;-36
2021/01/01 02:54:42;;;;;;;117.27;50.07;;;;;;;4.09;100.00;99258.81;5040551;28;20252;-29
2021/01/01 02:57:29;;;;;;;94.47;46.10;;;;;;;4.36;100.00;99260.53;5039308;28;20193;-30
2021/01/01 03:00:16;;;;;;;107.57;48.40;;;;;;;4.31;100.00;99255.41;5039800;28;20297;-30
2021/01/01 03:03:03;;;;;;;119.87;48.77;;;;;;;4.40;100.00;99251.97;5039686;28;20292;-30
2021/01/01 03:05:50;;;;;;;103.83;47.03;;;;;;;4.42;100.00;99255.38;5044331;28;20233;-31
2021/01/01 03:08:36;;;;;;;112.37;45.77;;;;;;;4.34;100.00;99260.53;5045800;28;20245;-31
2021/01/01 03:11:22;;;;;;;107.50;45.37;;;;;;;4.37;100.00;99254.56;5039684;28;20288;-30
2021/01/01 03:14:09;;;;;;;101.37;44.83;;;;;;;4.42;100.00;99256.25;5040143;28;20247;-30
2021/01/01 03:16:56;;;;;;;117.93;49.30;;;;;;;3.75;100.00;99257.91;5039857;28;20201;-30
2021/01/01 03:19:42;;;;;;;110.07;47.20;;;;;;;4.05;100.00;99262.22;5042274;28;20205;-30
2021/01/01 03:22:28;;;;;;;105.13;47.17;;;;;;;4.01;100.00;99251.13;5041365;28;20291;-30
2021/01/01 03:25:14;;;;;;;117.43;48.10;;;;;;;3.65;100.00;99251.91;5039763;28;20495;-30
2021/01/01 03:28:00;;;;;;;110.13;46.80;;;;;;;4.08;100.00;99262.22;5039351;28;20237;-30
2021/01/01 03:30:48;;;;;;;124.10;50.83;;;;;;;4.03;100.00;99253.69;5039845;28;20232;-31
2021/01/01 03:33:34;;;;;;;117.23;48.97;;;;;;;4.34;100.00;99262.25;5039864;28;20255;-30
2021/01/01 03:36:20;;;;;;;109.30;49.00;;;;;;;4.37;100.00;99255.41;5040435;28;20277;-30
2021/01/01 03:39:07;;;;;;;110.37;47.70;;;;;;;4.31;100.00;99263.09;5038934;28;20340;-30
2021/01/01 03:41:55;;;;;;;108.57;48.40;;;;;;;4.32;100.00;99261.38;5039674;28;20261;-30
2021/01/01 03:44:42;;;;;;;114.40;48.07;;;;;;;4.40;100.00;99259.66;5039097;28;20224;-30
2021/01/01 03:47:29;;;;;;;116.33;49.20;;;;;;;4.48;100.00;99265.63;5038748;28;20198;-30
2021/01/01 03:50:14;;;;;;;111.03;48.33;;;;;;;4.45;100.00;99261.38;5039121;28;20201;-30
2021/01/01 03:53:00;;;;;;;117.53;47.90;;;;;;;4.37;100.00;99263.09;5039623;28;20668;-31
2021/01/01 03:55:47;;;;;;;114.77;49.07;;;;;;;4.39;100.00;99266.50;5038680;28;20201;-31
2021/01/01 03:58:33;;;;;;;121.07;49.53;;;;;;;4.45;100.00;99263.94;5038903;28;20193;-30
2021/01/01 04:01:19;;;;;;;116.87;48.53;;;;;;;4.39;100.00;99265.66;5038985;28;20197;-30
2021/01/01 04:04:07;;;;;;;110.53;46.60;;;;;;;4.38;100.00;99264.81;5038996;28;20241;-30
2021/01/01 04:06:53;;;;;;;114.67;49.63;;;;;;;4.44;100.00;99267.34;5038339;28;20198;-30
2021/01/01 04:09:39;;;;;;;104.43;45.43;;;;;;;4.33;100.00;99269.06;5038133;28;20200;-30
2021/01/01 04:12:26;;;;;;;108.13;46.97;;;;;;;4.45;100.00;99275.88;5038757;28;20292;-30
2021/01/01 04:15:13;;;;;;;110.30;49.60;;;;;;;4.08;100.00;99272.44;5039046;28;20299;-31
2021/01/01 04:17:58;;;;;;;124.90;52.20;;;;;;;3.74;100.00;99274.97;5038556;28;20595;-30
2021/01/01 04:20:46;;;;;;;122.63;48.97;;;;;;;4.04;100.00;99266.47;5038600;28;20303;-30
2021/01/01 04:23:31;;;;;;;108.90;48.70;;;;;;;4.04;100.00;99268.19;5038384;28;20204;-30
2021/01/01 04:26:18;;;;;;;118.63;49.77;;;;;;;3.86;100.00;99273.25;5038274;28;20307;-30
2021/01/01 04:29:04;;;;;;;97.03;47.00;;;;;;;3.82;100.00;99267.28;5038109;28;20196;-31
2021/01/01 04:31:52;;;;;;;132.83;54.63;;;;;;;3.60;100.00;99274.03;5038001;28;20260;-30
2021/01/01 04:34:38;;;;;;;124.10;52.57;;;;;;;3.74;100.00;99272.41;5038270;28;20197;-30
2021/01/01 04:37:26;;;;;;;138.83;56.90;;;;;;;3.87;100.00;99272.41;5038605;28;20256;-31
2021/01/01 04:40:12;;;;;;;127.80;53.37;;;;;;;3.90;100.00;99278.41;5043812;28;20200;-31
2021/01/01 04:42:59;;;;;;;113.27;51.53;;;;;;;4.13;100.00;99275.88;5044767;28;20610;-30
2021/01/01 04:45:46;;;;;;;126.87;52.43;;;;;;;4.17;100.00;99272.47;5044273;28;20232;-31
2021/01/01 04:48:32;;;;;;;114.13;51.33;;;;;;;4.09;100.00;99279.28;5044374;28;20208;-30
2021/01/01 04:51:19;;;;;;;123.90;51.63;;;;;;;4.12;100.00;99279.28;5044645;28;20196;-30
2021/01/01 04:54:08;;;;;;;119.27;51.53;;;;;;;4.14;100.00;99281.00;5044381;28;20221;-30
2021/01/01 04:56:54;;;;;;;122.10;51.83;;;;;;;4.06;100.00;99282.69;5044346;28;20488;-30
2021/01/01 04:59:40;;;;;;;121.60;54.53;;;;;;;3.97;100.00;99289.50;5044634;28;20213;-30
2021/01/01 05:02:27;;;;;;;111.20;49.53;;;;;;;3.99;100.00;99288.66;5044655;28;20197;-30
2021/01/01 05:05:13;;;;;;;125.10;54.10;;;;;;;3.92;100.00;99286.94;5044535;28;20232;-31
2021/01/01 05:07:59;;;;;;;126.97;53.13;;;;;;;3.91;100.00;99297.16;5044504;28;20212;-30
2021/01/01 05:10:47;;;;;;;136.23;55.13;;;;;;;3.84;100.00;99288.59;5044405;28;20197;-30
2021/01/01 05:13:33;;;;;;;150.10;58.00;;;;;;;3.82;100.00;99287.75;5044692;28;20240;-30
2021/01/01 05:16:19;;;;;;;145.40;56.67;;;;;;;3.73;100.00;99291.16;5044821;28;20200;-31
2021/01/01 05:19:10;;;;;;;133.17;55.90;;;;;;;3.80;100.00;99286.88;5044594;28;20217;-31
2021/01/01 05:22:04;;;;;;;138.87;56.87;;;;;;;3.57;100.00;99294.50;5044070;28;20201;-30
2021/01/01 05:25:00;;;;;;;148.47;59.83;;;;;;;3.59;100.00;99291.97;5044182;28;20225;-31
2021/01/01 05:27:48;;;;;;;150.70;59.00;;;;;;;3.69;100.00;99291.97;5044427;28;20232;-30
2021/01/01 05:30:35;;;;;;;160.20;58.97;;;;;;;3.44;100.00;99302.97;5044582;28;20256;-30
2021/01/01 05:33:23;;;;;;;157.20;56.90;;;;;;;3.56;100.00;99297.91;5044461;28;20230;-30
2021/01/01 05:36:09;;;;;;;150.50;58.80;;;;;;;3.60;100.00;99312.41;5043956;28;20201;-30
2021/01/01 05:38:58;;;;;;;167.07;60.97;;;;;;;3.53;100.00;99302.16;5044323;28;20198;-30
2021/01/01 05:41:47;;;;;;;159.80;59.03;;;;;;;3.33;100.00;99307.19;5044119;28;20391;-30
2021/01/01 05:44:34;;;;;;;146.60;56.07;;;;;;;3.39;100.00;99314.91;5044414;28;20200;-30
2021/01/01 05:47:22;;;;;;;148.13;59.23;;;;;;;3.26;100.00;99320.78;5044065;28;20204;-30
2021/01/01 05:50:12;;;;;;;138.07;56.33;;;;;;;3.31;100.00;99316.53;5043541;28;20217;-31
2021/01/01 05:53:15;;;;;;;140.97;56.90;;;;;;;3.28;100.00;99329.31;5041059;28;20707;-30
2021/01/01 05:56:07;;;;;;;151.63;59.30;;;;;;;3.19;100.00;99324.16;5041066;28;20280;-30
2021/01/01 05:58:54;;;;;;;175.57;64.37;;;;;;;3.13;100.00;99334.34;5041580;28;20205;-30
2021/01/01 06:01:43;;;;;;;136.17;53.73;;;;;;;3.02;100.00;99327.44;5041072;28;20658;-31
2021/01/01 06:04:31;;;;;;;142.17;56.13;;;;;;;2.94;100.00;99325.72;5041209;28;20209;-30
2021/01/01 06:07:18;;;;;;;145.37;56.40;;;;;;;3.05;100.00;99326.63;5041506;28;20212;-31
2021/01/01 06:10:12;;;;;;;146.80;56.80;;;;;;;3.01;100.00;99337.66;5041547;28;20588;-30
2021/01/01 06:13:01;;;;;;;158.20;57.40;;;;;;;2.89;100.00;99340.13;5046092;28;20270;-31
2021/01/01 06:15:58;;;;;;;144.43;57.37;;;;;;;2.83;100.00;99346.03;5049529;28;20198;-30
2021/01/01 06:18:55;;;;;;;163.63;58.77;;;;;;;2.90;100.00;99349.50;5041262;28;20205;-31
2021/01/01 06:21:43;;;;;;;155.90;57.80;;;;;;;2.89;100.00;99350.34;5044147;28;20212;-31
2021/01/01 06:24:37;;;;;;;159.63;60.20;;;;;;;2.85;100.00;99352.03;5043236;28;20201;-30
2021/01/01 06:27:25;;;;;;;152.60;56.57;;;;;;;2.80;100.00;99353.69;5040425;28;20484;-30
2021/01/01 06:30:13;;;;;;;173.13;59.97;;;;;;;2.76;100.00;99354.53;5040524;28;20201;-31
2021/01/01 06:33:07;;;;;;;152.23;59.30;;;;;;;2.83;100.00;99352.84;5040455;28;20224;-30
2021/01/01 06:35:55;;;;;;;157.83;57.07;;;;;;;2.87;100.00;99364.81;5040436;28;20220;-31
2021/01/01 06:38:42;;;;;;;168.97;59.87;;;;;;;2.91;100.00;99366.53;5040818;28;20260;-31
2021/01/01 06:41:44;;;;;;;150.97;54.77;;;;;;;2.81;100.00;99370.72;5040661;28;20197;-30
2021/01/01 06:44:37;;;;;;;166.33;56.33;;;;;;;2.82;100.00;99372.44;5040256;28;20204;-31
2021/01/01 06:47:44;;;;;;;156.90;56.57;;;;;;;2.82;100.00;99367.31;5039788;28;20576;-30
2021/01/01 06:50:32;;;;;;;160.80;56.83;;;;;;;2.71;100.00;99374.91;5040215;28;20327;-31
2021/01/01 06:53:27;;;;;;;163.13;58.33;;;;;;;2.75;100.00;99376.66;5039744;28;20237;-31
2021/01/01 06:56:13;;;;;;;165.80;57.63;;;;;;;2.81;100.00;99380.06;5039973;28;20252;-31
2021/01/01 06:59:09;;;;;;;159.23;56.63;;;;;;;2.90;100.00;99381.00;5039901;28;20197;-30
2021/01/01 07:01:56;;;;;;;159.63;57.17;;;;;;;2.80;100.00;99389.44;5038668;28;20474;-30
2021/01/01 07:04:48;;;;;;;148.70;56.57;;;;;;;2.88;100.00;99387.81;5038890;28;20248;-30
2021/01/01 07:07:42;;;;;;;146.97;52.77;;;;;;;2.83;100.00;99394.56;5039939;28;20205;-31
2021/01/01 07:10:35;;;;;;;165.13;57.90;;;;;;;2.71;100.00;99394.47;5040347;28;20201;-30
2021/01/01 07:13:21;;;;;;;158.97;58.37;;;;;;;2.65;100.00;99399.53;5041084;28;20213;-31
2021/01/01 07:16:07;;;;;;;154.07;58.63;;;;;;;2.75;100.00;99402.19;5039426;28;20268;-31
2021/01/01 07:18:54;;;;;;;179.93;58.80;;;;;;;2.74;100.00;99403.03;5039392;28;20197;-31
2021/01/01 07:21:40;;;;;;;182.67;61.43;;;;;;;2.76;100.00;99401.34;5039296;28;20287;-31
2021/01/01 07:24:27;;;;;;;153.10;55.77;;;;;;;2.84;100.00;99410.75;5039120;28;20197;-31
2021/01/01 07:27:15;;;;;;;151.33;54.33;;;;;;;2.90;100.00;99406.56;5039384;28;20687;-31
2021/01/01 07:30:10;;;;;;;155.23;57.13;;;;;;;2.73;100.00;99414.06;5039472;28;20332;-30
2021/01/01 07:32:57;;;;;;;158.30;57.07;;;;;;;2.62;100.00;99409.69;5039201;28;20201;-31
2021/01/01 07:35:49;;;;;;;166.60;57.83;;;;;;;2.56;100.00;99410.53;5038760;28;20344;-30
2021/01/01 07:38:37;;;;;;;156.47;55.90;;;;;;;2.73;100.00;99405.56;5040634;28;20260;-31
2021/01/01 07:41:24;;;;;;;181.10;61.10;;;;;;;2.57;100.00;99416.47;5041971;28;20261;-31
2021/01/01 07:44:11;;;;;;;179.23;62.23;;;;;;;2.64;100.00;99428.44;5040185;28;20580;-31
2021/01/01 07:46:58;;;;;;;171.53;62.20;;;;;;;2.67;100.00;99420.81;5042199;28;20325;-31
2021/01/01 07:49:43;;;;;;;165.23;57.83;;;;;;;2.68;100.00;99419.97;5041929;28;20253;-30
2021/01/01 07:52:30;;;;;;;142.97;54.53;;;;;;;2.93;100.00;99413.38;5038547;28;20201;-32
2021/01/01 07:55:21;;;;;;;174.00;59.37;;;;;;;2.83;100.00;99429.47;5038245;28;20193;-31
2021/01/01 07:58:09;;;;;;;157.83;60.50;;;;;;;2.86;100.00;99434.59;5038803;28;20193;-31
2021/01/01 08:01:02;;;;;;;164.90;57.90;;;;;;;2.87;100.00;99431.19;5038825;28;20260;-31
2021/01/01 08:03:49;;;;;;;157.10;57.00;;;;;;;2.93;100.00;99437.22;5038554;28;20221;-31
2021/01/01 08:06:36;;;;;;;155.17;59.17;;;;;;;2.78;100.00;99437.09;5038783;28;20224;-31
2021/01/01 08:09:22;;;;;;;170.40;59.90;;;;;;;2.98;100.00;99450.03;5039013;28;20265;-31
2021/01/01 08:12:12;;;;;;;139.33;55.77;;;;;;;3.15;100.00;99445.06;5038701;28;20197;-31
2021/01/01 08:15:00;;;;;;;137.20;55.97;;;;;;;3.07;100.00;99445.84;5037695;28;20221;-31
2021/01/01 08:17:48;;;;;;;135.83;54.80;;;;;;;3.25;100.00;99441.72;5039038;28;20601;-32
2021/01/01 08:20:34;;;;;;;148.03;57.43;;;;;;;2.98;100.00;99442.38;5039050;28;20197;-29
2021/01/01 08:23:21;;;;;;;157.93;58.00;;;;;;;3.07;100.00;99450.09;5038815;28;20256;-32
2021/01/01 08:26:08;;;;;;;151.00;55.53;;;;;;;3.23;100.00;99454.47;5040510;28;20233;-31
2021/01/01 08:28:59;;;;;;;152.63;56.20;;;;;;;3.19;100.00;99454.47;5041565;28;20619;-31
2021/01/01 08:31:46;;;;;;;154.73;57.60;;;;;;;2.99;100.00;99455.16;5038673;28;20721;-32
2021/01/01 08:34:33;;;;;;;150.50;56.97;;;;;;;3.27;100.00;99453.66;5041584;28;20300;-31
2021/01/01 08:37:21;;;;;;;134.73;55.90;;;;;;;3.38;100.00;99461.44;5038061;28;20252;-31
2021/01/01 08:40:11;;;;;;;151.90;58.57;;;;;;;3.39;100.00;99466.56;5038858;28;20201;-32
2021/01/01 08:42:57;;;;;;;145.60;58.83;;;;;;;3.16;100.00;99472.31;5038597;28;20362;-32
2021/01/01 08:45:44;;;;;;;151.37;60.30;;;;;;;3.16;100.00;99465.53;5038380;28;20236;-31
2021/01/01 08:48:33;;;;;;;157.43;57.50;;;;;;;3.23;100.00;99467.25;5039468;28;20658;-29
2021/01/01 08:51:32;;;;;;;135.97;57.03;;;;;;;3.31;100.00;99475.00;5044020;28;20285;-30
2021/01/01 08:54:22;;;;;;;139.60;55.20;;;;;;;3.31;100.00;99477.56;5039873;28;20336;-30
2021/01/01 08:57:10;;;;;;;153.40;59.37;;;;;;;3.21;100.00;99473.19;5038858;28;20205;-30
2021/01/01 09:00:00;;;;;;;138.00;56.60;;;;;;;3.40;100.00;99472.50;5038708;28;20240;-31
2021/01/01 09:02:57;;;;;;;174.37;63.33;;;;;;;3.17;100.00;99482.56;5038873;28;20201;-30
2021/01/01 09:05:44;;;;;;;145.17;57.57;;;;;;;2.85;100.00;99484.81;5038169;28;20333;-30
2021/01/01 09:08:31;;;;;;;162.37;60.03;;;;;;;3.18;100.00;99481.72;5037950;28;20240;-30
2021/01/01 09:11:21;;;;;;;157.57;60.30;;;;;;;3.24;100.00;99483.44;5038250;28;20224;-30
2021/01/01 09:14:07;;;;;;;148.17;59.10;;;;;;;3.15;100.00;99494.47;5038281;28;20205;-30
2021/01/01 09:17:10;;;;;;;140.40;56.23;;;;;;;3.45;100.00;99492.13;5038123;28;20261;-30
2021/01/01 09:20:00;;;;;;;140.13;57.37;;;;;;;3.35;100.00;99490.38;5038667;28;20672;-30
2021/01/01 09:22:47;;;;;;;136.07;56.93;;;;;;;3.22;100.00;99493.66;5039589;28;20200;-30
2021/01/01 09:25:34;;;;;;;154.90;57.73;;;;;;;3.10;100.00;99494.41;5040772;28;20232;-30
2021/01/01 09:28:21;;;;;;;146.00;57.60;;;;;;;2.92;100.00;99496.81;5040889;28;20201;-30
2021/01/01 09:31:13;;;;;;;147.43;59.47;;;;;;;3.01;100.00;99499.44;5041620;28;20547;-30
2021/01/01 09:34:00;;;;;;;140.53;56.90;;;;;;;3.12;100.00;99504.66;5041318;28;20630;-31
2021/01/01 09:36:46;;;;;;;151.07;60.83;;;;;;;3.08;100.00;99506.31;5041651;28;20650;-30
2021/01/01 09:39:33;;;;;;;146.37;59.90;;;;;;;3.10;100.00;99516.56;5041409;28;20311;-30
2021/01/01 09:42:24;;;;;;;144.43;61.47;;;;;;;2.82;100.00;99512.88;5041616;28;20240;-30
2021/01/01 09:45:12;;;;;;;168.77;66.03;;;;;;;2.49;100.00;99510.81;5041502;28;20197;-30
2021/01/01 09:47:58;;;;;;;165.93;66.00;;;;;;;2.84;100.00;99518.84;5041208;28;20200;-31
2021/01/01 09:50:44;;;;;;;165.00;68.07;;;;;;;2.99;100.00;99523.28;5041462;28;20297;-30
2021/01/01 09:53:30;;;;;;;145.33;60.00;;;;;;;3.31;100.00;99514.19;5041182;28;20714;-30
2021/01/01 09:56:17;;;;;;;156.80;63.90;;;;;;;3.35;100.00;99525.28;5041483;28;20236;-31
2021/01/01 09:59:04;;;;;;;142.00;58.83;;;;;;;3.92;100.00;99522.28;5041191;28;20201;-30
2021/01/01 10:01:50;;;;;;;135.30;58.97;;;;;;;3.66;100.00;99519.56;5042214;28;20221;-30
2021/01/01 10:04:37;;;;;;;139.03;57.50;;;;;;;4.17;100.00;99519.88;5042572;28;20202;-30
2021/01/01 10:07:23;;;;;;;134.60;57.43;;;;;;;3.77;100.00;99527.31;5042144;28;20224;-31
2021/01/01 10:10:10;;;;;;;123.10;55.00;;;;;;;4.24;100.00;99522.44;5022044;28;20519;-31
2021/01/01 10:12:57;;;;;;;131.17;59.27;;;;;;;4.45;100.00;99529.34;5020926;28;20258;-31
2021/01/01 10:15:44;;;;;;;120.43;56.27;;;;;;;4.21;100.00;99527.53;5020465;28;20195;-31
2021/01/01 10:18:30;;;;;;;116.27;56.67;;;;;;;4.67;100.00;99527.72;5020799;28;20652;-30
2021/01/01 10:21:19;;;;;;;107.83;53.27;;;;;;;4.65;100.00;99532.84;5021049;28;20674;-30
2021/01/01 10:24:06;;;;;;;124.20;56.93;;;;;;;5.27;100.00;99528.69;5020225;28;20195;-30
2021/01/01 10:26:53;;;;;;;108.20;54.03;;;;;;;5.30;100.00;99526.13;5020266;28;20271;-31
2021/01/01 10:29:40;;;;;;;98.23;49.23;;;;;;;6.22;100.00;99533.72;5021032;28;20686;-30
2021/01/01 10:32:27;;;;;;;97.20;49.83;;;;;;;6.12;100.00;99526.91;5020771;28;20592;-30
2021/01/01 10:35:13;;;;;;;90.70;48.30;;;;;;;5.48;100.00;99526.97;5020644;28;20206;-30
2021/01/01 10:38:00;;;;;;;94.67;47.57;;;;;;;5.13;100.00;99526.13;5019371;28;20198;-30
2021/01/01 10:40:46;;;;;;;82.73;45.90;;;;;;;5.99;100.00;99526.97;5021681;28;20261;-30
2021/01/01 10:43:34;;;;;;;89.53;47.10;;;;;;;5.92;100.00;99527.81;5021110;28;20262;-31
2021/01/01 10:46:21;;;;;;;86.80;46.17;;;;;;;7.19;100.00;99528.97;5019892;28;20225;-30
2021/01/01 10:49:08;;;;;;;83.67;44.83;;;;;;;7.36;100.00;99531.41;5020201;28;20201;-30
2021/01/01 10:51:57;;;;;;;75.23;44.67;;;;;;;7.29;100.00;99534.88;5020060;28;20206;-30
2021/01/01 10:54:44;;;;;;;83.80;45.13;;;;;;;6.46;100.00;99530.22;5020384;28;20261;-30
2021/01/01 10:57:29;;;;;;;83.90;46.60;;;;;;;6.30;100.00;99531.13;5020400;28;20203;-30
2021/01/01 11:00:16;;;;;;;77.27;43.50;;;;;;;5.80;100.00;99529.50;5019962;28;20294;-30
2021/01/01 11:03:03;;;;;;;77.57;44.33;;;;;;;6.02;100.00;99522.66;5019820;28;20825;-30
2021/01/01 11:05:50;;;;;;;76.37;43.93;;;;;;;5.95;100.00;99530.38;5019527;28;20247;-30
2021/01/01 11:08:38;;;;;;;78.43;44.27;;;;;;;5.71;100.00;99526.97;5019770;28;20261;-30
2021/01/01 11:11:24;;;;;;;77.20;43.20;;;;;;;6.59;100.00;99535.31;5020277;28;20263;-30
2021/01/01 11:14:13;;;;;;;73.40;41.10;;;;;;;6.83;100.00;99537.75;5019910;28;20242;-30
2021/01/01 12:22:13;;;;;;;39.97;26.10;;;;;;;6.36;100.00;99509.72;5022808;28;20218;-30
2021/01/01 12:25:02;;;;;;;48.77;27.00;;;;;;;6.72;100.00;99511.25;5028840;28;20209;-31
2021/01/01 12:27:49;;;;;;;38.40;25.60;;;;;;;6.49;100.00;99509.66;5022127;28;20521;-30
2021/01/01 12:30:37;;;;;;;39.70;25.07;;;;;;;6.59;100.00;99510.47;5025171;28;20202;-30
2021/01/01 12:33:27;;;;;;;39.73;26.83;;;;;;;6.91;100.00;99507.72;5029052;28;20206;-30
2021/01/01 12:36:12;;;;;;;41.47;26.03;;;;;;;6.82;100.00;99507.75;5021563;28;20198;-30
2021/01/01 12:38:59;;;;;;;41.27;24.20;;;;;;;6.28;100.00;99508.88;5019373;28;20202;-30
2021/01/01 12:41:48;;;;;;;47.20;26.03;;;;;;;6.31;100.00;99507.16;5018765;28;20271;-37
2021/01/01 12:44:34;;;;;;;40.27;24.20;;;;;;;6.51;100.00;99504.50;5018223;28;20284;-30
2021/01/01 12:47:20;;;;;;;47.70;27.77;;;;;;;6.36;100.00;99509.72;5018585;28;20229;-30
2021/01/01 12:50:07;;;;;;;42.20;26.33;;;;;;;6.06;100.00;99502.97;5020377;28;20603;-31
2021/01/01 12:52:55;;;;;;;43.70;26.80;;;;;;;5.61;100.00;99504.72;5019235;28;20213;-30
2021/01/01 12:55:44;;;;;;;42.27;25.90;;;;;;;5.95;100.00;99495.31;5018339;28;20481;-31
2021/01/01 12:58:31;;;;;;;41.67;26.03;;;;;;;6.22;100.00;99509.75;5018458;28;20732;-30
2021/01/01 13:01:19;;;;;;;35.77;23.07;;;;;;;5.62;100.00;99511.56;5021325;28;20209;-31
2021/01/01 13:04:05;;;;;;;39.73;25.17;;;;;;;5.56;100.00;99509.03;5022456;28;20289;-30
2021/01/01 13:06:52;;;;;;;43.53;25.27;;;;;;;5.76;100.00;99503.88;5021860;28;20514;-31
2021/01/01 13:09:47;;;;;;;43.03;26.10;;;;;;;5.88;100.00;99515.00;5041283;28;20313;-30
2021/01/01 13:12:36;;;;;;;43.67;26.47;;;;;;;5.87;100.00;99513.25;5041498;28;20308;-30
2021/01/01 13:15:23;;;;;;;46.90;28.87;;;;;;;5.93;100.00;99515.00;5041936;28;20224;-32
2021/01/01 13:18:10;;;;;;;45.97;27.67;;;;;;;5.80;100.00;99513.25;5042110;28;20360;-31
2021/01/01 13:20:56;;;;;;;47.13;28.37;;;;;;;5.80;100.00;99520.94;5042332;28;20484;-30
2021/01/01 13:23:43;;;;;;;42.53;26.50;;;;;;;5.55;100.00;99520.16;5041099;28;20567;-30
2021/01/01 13:26:36;;;;;;;44.63;27.40;;;;;;;6.04;100.00;99528.63;5030428;28;20249;-32
2021/01/01 13:29:31;;;;;;;46.60;28.80;;;;;;;6.19;100.00;99522.63;5021104;28;20205;-31
2021/01/01 13:32:22;;;;;;;45.13;27.90;;;;;;;6.15;100.00;99526.91;5020582;28;20198;-31
2021/01/01 13:35:09;;;;;;;48.10;26.43;;;;;;;6.06;100.00;99531.22;5021418;28;20194;-30
2021/01/01 13:38:13;;;;;;;42.63;25.87;;;;;;;5.95;100.00;99533.81;5035008;28;20205;-31
2021/01/01 13:41:01;;;;;;;45.10;26.80;;;;;;;5.94;100.00;99528.69;5040886;28;20200;-31
2021/01/01 13:43:52;;;;;;;42.00;26.50;;;;;;;5.88;100.00;99540.66;5041122;28;20206;-30
2021/01/01 13:46:39;;;;;;;41.47;26.37;;;;;;;5.95;100.00;99536.38;5041243;28;20655;-30
2021/01/01 13:49:29;;;;;;;49.47;26.93;;;;;;;5.65;100.00;99536.38;5040559;28;20703;-31
2021/01/01 13:52:17;;;;;;;45.80;27.13;;;;;;;5.71;100.00;99534.66;5040812;28;20197;-31